In Rescue
 
Open Full Screen Window  High Contrast Mode
Wind Gusting 18 knots
11
May 13, 2021 11:57 AM EDT
Weather Information
Wind Direction
  300 °
Wind Speed
  11 kt (13 mph)
Wind Gust
  18 kt (21 mph)
Altimeter
30.19 in
Visibility
10 SM
Temperature
16° C
61° F
Dewpoint
-01° C
30° F
Humidity
31%
Sky Condition
Clear
VFR

METAR KCDA 131557Z AUTO 30011G18KT 10SM CLR 16/M01 A3019 RMK AO2 T01601015

FAA Disclaimer: The data displayed is for advisory purposes only and is not to be used for flight planning or operations.